Time;durP1;ratioP1;P1;durP2;ratioP2;P2;SDS_P1;SDS_P2;PMS_P1;PMS_P2;Temp;Humidity;BMP_temperature;BMP_pressure;BME280_temperature;BME280_humidity;BME280_pressure;Samples;Min_cycle;Max_cycle;Signal;HPM_P1;HPM_P2
2021/11/29 00:01:22;;;;;;;16.38;11.77;;;1.40;99.90;;;;;;5046750;28;20268;-81
2021/11/29 00:03:48;;;;;;;19.70;13.07;;;1.40;99.90;;;;;;5043591;28;20190;-80
2021/11/29 00:06:17;;;;;;;17.20;11.75;;;1.30;99.90;;;;;;5046902;28;20225;-80
2021/11/29 00:08:45;;;;;;;20.10;12.40;;;1.20;99.90;;;;;;5050869;28;20202;-80
2021/11/29 00:11:12;;;;;;;17.23;12.02;;;1.20;99.90;;;;;;5052248;28;20205;-80
2021/11/29 00:13:39;;;;;;;17.83;12.40;;;1.30;99.90;;;;;;5045355;28;20202;-81
2021/11/29 00:16:06;;;;;;;20.48;14.15;;;1.30;99.90;;;;;;5046745;28;20205;-81
2021/11/29 00:18:33;;;;;;;17.00;11.57;;;1.40;99.90;;;;;;5049262;28;20214;-81
2021/11/29 00:21:00;;;;;;;18.48;13.52;;;1.40;99.90;;;;;;5051402;28;20217;-80
2021/11/29 00:23:27;;;;;;;19.40;13.48;;;1.40;99.90;;;;;;5055004;28;20209;-80
2021/11/29 00:25:55;;;;;;;18.05;13.20;;;1.40;99.90;;;;;;5051463;28;20199;-80
2021/11/29 00:28:22;;;;;;;17.92;12.25;;;1.40;99.90;;;;;;5046762;28;20200;-80
2021/11/29 00:30:49;;;;;;;19.10;13.70;;;1.40;99.90;;;;;;5046217;28;20228;-80
2021/11/29 00:33:16;;;;;;;17.13;12.70;;;1.50;99.90;;;;;;5047517;28;20209;-81
2021/11/29 00:35:43;;;;;;;18.77;14.27;;;1.50;99.90;;;;;;5044822;28;20198;-81
2021/11/29 00:38:11;;;;;;;17.50;11.18;;;1.60;99.90;;;;;;5046793;28;20201;-81
2021/11/29 00:40:39;;;;;;;25.40;17.65;;;1.40;99.90;;;;;;5047505;28;20717;-80
2021/11/29 00:43:07;;;;;;;21.58;15.50;;;1.50;99.90;;;;;;5042898;28;20201;-80
2021/11/29 00:45:34;;;;;;;18.08;13.20;;;1.50;99.90;;;;;;5049077;28;20566;-81
2021/11/29 00:48:01;;;;;;;17.65;12.10;;;1.40;99.90;;;;;;5046546;28;20204;-80
2021/11/29 00:50:28;;;;;;;17.20;11.13;;;1.50;99.90;;;;;;5044925;28;20222;-81
2021/11/29 00:52:55;;;;;;;22.98;13.52;;;1.40;99.90;;;;;;5047771;28;20203;-80
2021/11/29 00:55:23;;;;;;;17.58;11.90;;;1.30;99.90;;;;;;5043343;28;20202;-80
2021/11/29 00:57:50;;;;;;;17.77;11.68;;;1.30;99.90;;;;;;5051811;28;20217;-81
2021/11/29 01:00:21;;;;;;;19.80;15.38;;;1.30;99.90;;;;;;5044444;28;20214;-80
2021/11/29 01:02:48;;;;;;;21.55;15.75;;;1.30;99.90;;;;;;5052655;28;20224;-80
2021/11/29 01:05:15;;;;;;;22.75;15.60;;;1.40;99.90;;;;;;5052113;28;20210;-81
2021/11/29 01:07:42;;;;;;;20.90;14.38;;;1.40;99.90;;;;;;5044312;28;20198;-81
2021/11/29 01:10:11;;;;;;;22.15;15.50;;;1.30;99.90;;;;;;5049480;28;20218;-81
2021/11/29 01:12:38;;;;;;;17.85;13.90;;;1.30;99.90;;;;;;5049718;28;20574;-81
2021/11/29 01:15:07;;;;;;;19.83;10.52;;;1.30;99.90;;;;;;5049086;28;20581;-81
2021/11/29 01:17:36;;;;;;;20.55;13.18;;;1.30;99.90;;;;;;5048936;28;20198;-80
2021/11/29 01:20:04;;;;;;;21.92;14.20;;;1.30;99.90;;;;;;5048139;28;20230;-80
2021/11/29 01:22:30;;;;;;;19.42;12.13;;;1.20;99.90;;;;;;5049902;28;20201;-80
2021/11/29 01:24:57;;;;;;;18.20;14.35;;;1.30;99.90;;;;;;5050524;28;20206;-80
2021/11/29 01:27:24;;;;;;;21.45;15.05;;;1.30;99.90;;;;;;5048957;28;20199;-80
2021/11/29 01:29:51;;;;;;;25.85;15.63;;;1.30;99.90;;;;;;5049298;28;20598;-80
2021/11/29 01:32:17;;;;;;;28.90;15.55;;;1.30;99.90;;;;;;5048607;28;20319;-80
2021/11/29 01:34:45;;;;;;;23.25;14.38;;;1.30;99.90;;;;;;5052640;28;20195;-80
2021/11/29 01:37:12;;;;;;;25.98;17.42;;;1.30;99.90;;;;;;5057088;28;20206;-79
2021/11/29 01:39:39;;;;;;;19.48;13.57;;;1.40;99.90;;;;;;5051369;28;20225;-80
2021/11/29 01:42:07;;;;;;;29.50;17.52;;;1.40;99.90;;;;;;5051594;28;20206;-80
2021/11/29 01:44:34;;;;;;;21.70;16.13;;;1.30;99.90;;;;;;5050626;28;20203;-80
2021/11/29 01:47:01;;;;;;;20.17;14.82;;;1.30;99.90;;;;;;5049537;28;20204;-80
2021/11/29 01:49:28;;;;;;;24.83;16.88;;;1.30;99.90;;;;;;5048471;28;20230;-80
2021/11/29 01:51:56;;;;;;;22.95;15.65;;;1.30;99.90;;;;;;5049814;28;20208;-80
2021/11/29 01:54:24;;;;;;;22.42;15.23;;;1.40;99.90;;;;;;5047473;28;20209;-80
2021/11/29 01:56:51;;;;;;;25.42;16.48;;;1.50;99.90;;;;;;5045139;28;20213;-80
2021/11/29 01:59:18;;;;;;;24.70;16.73;;;1.40;99.90;;;;;;5060538;28;20233;-80
2021/11/29 02:01:45;;;;;;;23.45;16.60;;;1.30;99.90;;;;;;5048917;28;20215;-80
2021/11/29 02:04:14;;;;;;;23.73;17.58;;;1.40;99.90;;;;;;5040676;28;20561;-80
2021/11/29 02:06:42;;;;;;;29.90;17.40;;;1.40;99.90;;;;;;5038866;28;20198;-80
2021/11/29 02:09:11;;;;;;;25.88;18.73;;;1.20;99.90;;;;;;5041385;28;20233;-80
2021/11/29 02:11:39;;;;;;;24.55;16.20;;;1.30;99.90;;;;;;5026932;28;20218;-80
2021/11/29 02:14:07;;;;;;;23.50;15.65;;;1.20;99.90;;;;;;5027847;28;20203;-80
2021/11/29 02:16:34;;;;;;;22.70;15.27;;;1.20;99.90;;;;;;5041050;28;20202;-80
2021/11/29 02:19:02;;;;;;;18.10;13.00;;;1.10;99.90;;;;;;5039567;28;20630;-80
2021/11/29 02:21:32;;;;;;;18.38;11.70;;;1.10;99.90;;;;;;5040433;28;20230;-80
2021/11/29 02:24:04;;;;;;;27.88;19.15;;;1.10;99.90;;;;;;5033843;28;20212;-80
2021/11/29 02:26:34;;;;;;;25.50;15.90;;;1.10;99.90;;;;;;5019552;28;20214;-80
2021/11/29 02:29:06;;;;;;;26.27;17.27;;;1.20;99.90;;;;;;5025032;28;20226;-80
2021/11/29 02:31:35;;;;;;;29.48;18.05;;;1.20;99.90;;;;;;5029495;28;20535;-80
2021/11/29 02:34:08;;;;;;;29.20;19.48;;;1.20;99.90;;;;;;5024272;28;20206;-80
2021/11/29 02:36:36;;;;;;;25.88;18.02;;;1.10;99.90;;;;;;5039411;28;20607;-80
2021/11/29 02:39:05;;;;;;;31.85;20.73;;;1.10;99.90;;;;;;5034069;28;20253;-80
2021/11/29 02:41:32;;;;;;;23.90;16.08;;;1.10;99.90;;;;;;5019078;28;20238;-80
2021/11/29 02:43:59;;;;;;;25.23;17.23;;;1.10;99.90;;;;;;5022478;28;20461;-80
2021/11/29 02:46:26;;;;;;;30.92;21.40;;;1.10;99.90;;;;;;5038840;28;20207;-80
2021/11/29 02:48:53;;;;;;;25.92;20.50;;;1.20;99.90;;;;;;5034811;28;20198;-80
2021/11/29 02:51:26;;;;;;;32.45;19.25;;;1.10;99.90;;;;;;5038534;28;20204;-80
2021/11/29 02:53:57;;;;;;;28.98;21.92;;;1.20;99.90;;;;;;5031438;28;20210;-80
2021/11/29 02:56:24;;;;;;;29.45;22.23;;;1.30;99.90;;;;;;5019814;28;20211;-80
2021/11/29 02:58:51;;;;;;;32.45;19.45;;;1.20;99.90;;;;;;5026089;28;20213;-80
2021/11/29 03:01:18;;;;;;;31.73;22.58;;;1.20;99.90;;;;;;5039091;28;20238;-80
2021/11/29 03:03:46;;;;;;;27.10;20.23;;;1.20;99.90;;;;;;5033118;28;20207;-80
2021/11/29 03:06:13;;;;;;;34.70;22.45;;;1.30;99.90;;;;;;5020045;28;20245;-80
2021/11/29 03:08:40;;;;;;;30.98;20.50;;;1.20;99.90;;;;;;5018209;28;20211;-80
2021/11/29 03:11:08;;;;;;;26.45;19.70;;;1.20;99.90;;;;;;5021179;28;20194;-80
2021/11/29 03:13:36;;;;;;;32.88;21.73;;;1.20;99.90;;;;;;5038481;28;20668;-80
2021/11/29 03:16:02;;;;;;;28.70;18.42;;;1.10;99.90;;;;;;5036409;28;20214;-80
2021/11/29 03:18:30;;;;;;;34.72;23.30;;;1.10;99.90;;;;;;5018200;28;20214;-80
2021/11/29 03:20:57;;;;;;;29.90;19.58;;;1.10;99.90;;;;;;5018852;28;20236;-80
2021/11/29 03:23:24;;;;;;;29.52;19.40;;;1.10;99.90;;;;;;5036415;28;20205;-80
2021/11/29 03:25:50;;;;;;;26.33;17.75;;;1.10;99.90;;;;;;5035220;28;20672;-80
2021/11/29 03:28:19;;;;;;;32.28;19.90;;;1.00;99.90;;;;;;5018077;28;20218;-80
2021/11/29 03:30:45;;;;;;;32.80;21.63;;;1.00;99.90;;;;;;5019768;28;20226;-80
2021/11/29 03:33:12;;;;;;;32.75;22.20;;;1.10;99.90;;;;;;5039378;28;20217;-80
2021/11/29 03:35:39;;;;;;;34.13;21.40;;;1.20;99.90;;;;;;5038388;28;20210;-80
2021/11/29 03:38:07;;;;;;;34.40;22.00;;;1.10;99.90;;;;;;5021282;28;20208;-80
2021/11/29 03:40:34;;;;;;;29.52;20.75;;;1.10;99.90;;;;;;5019689;28;20222;-80
2021/11/29 03:43:00;;;;;;;29.77;19.02;;;1.10;99.90;;;;;;5019198;28;20214;-80
2021/11/29 03:45:28;;;;;;;32.90;19.40;;;1.10;99.90;;;;;;5039194;28;20202;-80
2021/11/29 03:47:55;;;;;;;25.90;13.82;;;1.00;99.90;;;;;;5039141;28;20218;-79
2021/11/29 03:50:22;;;;;;;27.83;21.83;;;1.00;99.90;;;;;;5037949;28;20233;-80
2021/11/29 03:52:49;;;;;;;35.83;21.58;;;1.00;99.90;;;;;;5038334;28;20683;-80
2021/11/29 03:55:15;;;;;;;28.60;21.70;;;1.00;99.90;;;;;;5018672;28;20210;-80
2021/11/29 03:57:42;;;;;;;25.92;18.70;;;1.00;99.90;;;;;;5018290;28;20696;-80
2021/11/29 04:00:10;;;;;;;32.05;20.58;;;1.10;99.90;;;;;;5018882;28;20369;-79
2021/11/29 04:02:39;;;;;;;25.90;18.88;;;1.10;99.90;;;;;;5019477;28;20695;-79
2021/11/29 04:05:06;;;;;;;36.10;21.42;;;1.00;99.90;;;;;;5036332;28;20206;-79
2021/11/29 04:07:33;;;;;;;30.70;19.63;;;1.10;99.90;;;;;;5037615;28;20213;-79
2021/11/29 04:09:59;;;;;;;28.02;18.65;;;1.10;99.90;;;;;;5019969;28;20254;-80
2021/11/29 04:12:26;;;;;;;24.17;18.40;;;1.10;99.90;;;;;;5017171;28;20207;-79
2021/11/29 04:14:53;;;;;;;25.30;17.90;;;1.30;99.90;;;;;;5033886;28;20206;-80
2021/11/29 04:17:20;;;;;;;26.77;18.38;;;1.30;99.90;;;;;;5021866;28;20206;-80
2021/11/29 04:19:48;;;;;;;28.38;19.38;;;1.30;99.90;;;;;;5017787;28;20721;-80
2021/11/29 04:22:15;;;;;;;32.03;19.77;;;1.30;99.90;;;;;;5030432;28;20272;-82
2021/11/29 04:24:44;;;;;;;25.92;19.02;;;1.30;99.90;;;;;;5036528;28;20289;-80
2021/11/29 04:27:10;;;;;;;28.52;17.90;;;1.20;99.90;;;;;;5023840;28;20204;-80
2021/11/29 04:29:40;;;;;;;27.50;19.63;;;1.30;99.90;;;;;;5017126;28;20231;-80
2021/11/29 04:32:07;;;;;;;34.30;22.92;;;1.20;99.90;;;;;;5028153;28;20199;-80
2021/11/29 04:34:35;;;;;;;33.80;19.27;;;1.30;99.90;;;;;;5024395;28;20203;-80
2021/11/29 04:37:04;;;;;;;32.67;21.27;;;1.30;99.90;;;;;;5016869;28;20210;-80
2021/11/29 04:39:31;;;;;;;31.73;18.83;;;1.30;99.90;;;;;;5027452;28;20229;-80
2021/11/29 04:41:57;;;;;;;32.08;23.73;;;1.30;99.90;;;;;;5036016;28;20222;-80
2021/11/29 04:44:24;;;;;;;28.05;20.23;;;1.20;99.90;;;;;;5036834;28;20195;-80
2021/11/29 04:46:51;;;;;;;29.02;20.65;;;1.20;99.90;;;;;;5040169;28;20206;-79
2021/11/29 04:49:18;;;;;;;31.80;21.70;;;1.10;99.90;;;;;;5041263;28;20243;-80
2021/11/29 04:51:45;;;;;;;24.92;16.95;;;1.10;99.90;;;;;;5039280;28;20209;-79
2021/11/29 04:54:13;;;;;;;33.35;19.45;;;1.10;99.90;;;;;;5039403;28;20217;-80
2021/11/29 04:56:41;;;;;;;26.83;17.05;;;1.10;99.90;;;;;;5034882;28;20203;-80
2021/11/29 04:59:08;;;;;;;32.85;18.65;;;1.10;99.90;;;;;;5020907;28;20230;-79
2021/11/29 05:01:35;;;;;;;30.75;22.15;;;1.10;99.90;;;;;;5023670;28;20222;-79
2021/11/29 05:04:02;;;;;;;28.20;19.10;;;1.20;99.90;;;;;;5039868;28;20259;-80
2021/11/29 05:06:29;;;;;;;34.80;21.10;;;1.20;99.90;;;;;;5035357;28;20215;-80
2021/11/29 05:08:55;;;;;;;28.30;18.23;;;1.20;99.90;;;;;;5018443;28;20207;-80
2021/11/29 05:11:23;;;;;;;33.60;19.55;;;1.20;99.90;;;;;;5020350;28;20200;-79
2021/11/29 05:13:50;;;;;;;32.40;21.58;;;1.10;99.90;;;;;;5045951;28;20207;-79
2021/11/29 05:16:17;;;;;;;24.73;15.70;;;1.10;99.90;;;;;;5049170;28;20198;-79
2021/11/29 05:18:44;;;;;;;29.13;19.08;;;1.10;99.90;;;;;;5041050;28;20198;-79
2021/11/29 05:21:11;;;;;;;29.60;19.58;;;1.20;99.90;;;;;;5045816;28;20225;-80
2021/11/29 05:23:37;;;;;;;27.40;18.67;;;1.20;99.90;;;;;;5044126;28;20195;-80
2021/11/29 05:26:04;;;;;;;27.30;17.70;;;1.20;99.90;;;;;;5034408;28;20199;-80
2021/11/29 05:28:33;;;;;;;25.63;16.92;;;1.30;99.90;;;;;;5037147;28;20694;-81
2021/11/29 05:30:59;;;;;;;34.17;19.35;;;1.20;99.90;;;;;;5032560;28;20215;-80
2021/11/29 05:33:26;;;;;;;32.95;20.05;;;1.10;99.90;;;;;;5016979;28;20215;-80
2021/11/29 05:35:53;;;;;;;24.13;17.75;;;1.10;99.90;;;;;;5019084;28;20207;-80
2021/11/29 05:38:20;;;;;;;22.25;14.82;;;1.20;99.90;;;;;;5036551;28;20590;-80
2021/11/29 05:40:48;;;;;;;25.67;17.70;;;1.10;99.90;;;;;;5034911;28;20237;-80
2021/11/29 05:43:14;;;;;;;17.85;9.20;;;1.10;99.90;;;;;;5020273;28;20226;-80
2021/11/29 05:45:43;;;;;;;27.58;17.17;;;1.00;99.90;;;;;;5020939;28;20207;-80
2021/11/29 05:48:09;;;;;;;18.17;12.10;;;1.10;99.90;;;;;;5017031;28;20211;-81
2021/11/29 05:56:02;;;;;;;23.40;15.07;;;1.00;99.90;;;;;;5041574;28;20237;-85
2021/11/29 05:58:32;;;;;;;24.48;15.40;;;1.00;99.90;;;;;;5044002;28;20297;-86
2021/11/29 06:01:23;;;;;;;13.63;8.95;;;0.90;99.90;;;;;;5045848;28;20219;-86
2021/11/29 06:04:06;;;;;;;19.98;15.18;;;0.90;99.90;;;;;;5044186;28;20202;-86
2021/11/29 06:06:55;;;;;;;24.27;15.18;;;0.90;99.90;;;;;;5044924;28;20218;-86
2021/11/29 06:09:22;;;;;;;16.33;12.30;;;0.80;99.90;;;;;;5043027;28;20636;-85
2021/11/29 06:11:49;;;;;;;24.80;14.45;;;0.80;99.90;;;;;;5042782;28;20209;-86
2021/11/29 06:14:16;;;;;;;22.08;14.88;;;0.90;99.90;;;;;;5042192;28;20644;-86
2021/11/29 06:16:45;;;;;;;18.17;12.73;;;0.90;99.90;;;;;;5041523;28;20230;-86
2021/11/29 06:19:13;;;;;;;16.20;12.52;;;0.90;99.90;;;;;;5042749;28;20264;-86
2021/11/29 06:21:46;;;;;;;22.83;15.60;;;0.80;99.90;;;;;;5041365;28;20239;-85
2021/11/29 06:24:13;;;;;;;21.50;14.45;;;0.90;99.90;;;;;;5043595;28;20268;-85
2021/11/29 06:26:40;;;;;;;23.20;14.30;;;0.80;99.90;;;;;;5043593;28;20194;-85
2021/11/29 06:29:07;;;;;;;20.23;11.82;;;0.80;99.90;;;;;;5042315;28;20231;-85
2021/11/29 06:31:34;;;;;;;21.23;14.23;;;0.80;99.90;;;;;;5042221;28;20210;-85
2021/11/29 06:34:02;;;;;;;18.02;12.90;;;0.80;99.90;;;;;;5043576;28;20617;-85
2021/11/29 06:36:30;;;;;;;15.38;12.18;;;0.80;99.90;;;;;;5042529;28;20202;-86
2021/11/29 06:38:59;;;;;;;14.82;11.25;;;0.80;99.90;;;;;;5042496;28;20236;-86
2021/11/29 06:41:27;;;;;;;22.40;13.90;;;0.90;99.90;;;;;;5040192;28;20218;-86
2021/11/29 06:43:54;;;;;;;16.08;11.63;;;0.80;99.90;;;;;;5033591;28;20210;-85
2021/11/29 06:46:21;;;;;;;20.80;11.07;;;0.90;99.90;;;;;;5032820;28;20208;-86
2021/11/29 06:48:48;;;;;;;11.68;8.95;;;0.80;99.90;;;;;;5042006;28;20210;-86
2021/11/29 06:51:17;;;;;;;17.40;12.77;;;0.70;99.90;;;;;;5044049;28;20218;-86
2021/11/29 06:53:48;;;;;;;17.55;12.00;;;0.80;99.90;;;;;;5044016;28;20233;-86
2021/11/29 06:56:14;;;;;;;18.85;11.82;;;0.80;99.90;;;;;;5041236;28;20206;-82
2021/11/29 06:58:41;;;;;;;13.73;8.32;;;0.80;99.90;;;;;;5040987;28;20210;-82
2021/11/29 07:01:08;;;;;;;16.67;11.43;;;0.70;99.90;;;;;;5040155;28;20226;-82
2021/11/29 07:03:35;;;;;;;18.70;11.25;;;0.70;99.90;;;;;;5040443;28;20198;-82
2021/11/29 07:06:03;;;;;;;16.17;10.80;;;0.80;99.90;;;;;;5039039;28;20199;-81
2021/11/29 07:08:31;;;;;;;16.00;10.45;;;0.80;99.90;;;;;;5041505;28;20202;-81
2021/11/29 07:10:58;;;;;;;16.00;10.23;;;0.90;99.90;;;;;;5047644;28;20245;-82
2021/11/29 07:13:25;;;;;;;13.60;8.77;;;0.90;99.90;;;;;;5051975;28;20248;-86
2021/11/29 07:15:53;;;;;;;12.65;8.65;;;0.80;99.90;;;;;;5044343;28;20202;-86
2021/11/29 07:18:19;;;;;;;15.68;10.80;;;0.90;99.90;;;;;;5045157;28;20198;-85
2021/11/29 07:23:29;;;;;;;13.65;9.18;;;0.80;99.90;;;;;;5002536;28;20259;-86
2021/11/29 07:26:15;;;;;;;6.68;4.75;;;0.90;99.90;;;;;;5045999;28;20179;-84
2021/11/29 08:05:29;;;;;;;6.22;4.90;;;0.70;99.90;;;;;;5039059;28;20214;-87
2021/11/29 08:08:00;;;;;;;13.60;9.40;;;0.60;99.90;;;;;;5037469;28;20206;-85
2021/11/29 08:19:52;;;;;;;12.68;7.47;;;0.70;99.90;;;;;;5063395;28;20212;-83
2021/11/29 08:25:43;;;;;;;14.13;8.07;;;0.70;99.90;;;;;;5062929;22;20232;-84
2021/11/29 08:31:03;;;;;;;12.60;8.25;;;0.80;99.90;;;;;;5053079;28;20712;-84
2021/11/29 08:33:30;;;;;;;15.45;7.63;;;0.80;99.90;;;;;;5058759;28;20208;-84
2021/11/29 08:35:56;;;;;;;17.23;8.45;;;0.80;99.90;;;;;;5067824;28;20293;-82
2021/11/29 08:38:23;;;;;;;9.85;7.63;;;0.90;99.90;;;;;;5071562;28;20194;-81
2021/11/29 08:41:04;;;;;;;9.73;7.85;;;0.80;99.90;;;;;;5052843;28;20195;-83
2021/11/29 08:43:38;;;;;;;12.32;8.88;;;0.90;99.90;;;;;;5045052;28;20301;-83
2021/11/29 08:46:05;;;;;;;9.13;6.60;;;0.90;99.90;;;;;;5057284;28;20229;-82
2021/11/29 08:48:34;;;;;;;8.45;7.38;;;0.90;99.90;;;;;;5057586;28;20201;-83
2021/11/29 08:51:01;;;;;;;13.93;6.50;;;1.00;99.90;;;;;;5054995;28;20664;-84
2021/11/29 08:53:30;;;;;;;15.18;7.75;;;1.00;99.90;;;;;;5058235;28;20576;-84
2021/11/29 08:55:59;;;;;;;8.23;6.45;;;1.00;99.90;;;;;;5042597;28;20255;-84
2021/11/29 08:58:26;;;;;;;7.65;6.90;;;1.00;99.90;;;;;;5039465;28;20206;-84
2021/11/29 09:00:59;;;;;;;9.52;6.78;;;1.00;99.90;;;;;;5052984;28;20201;-85
2021/11/29 09:03:27;;;;;;;12.15;6.82;;;1.10;99.90;;;;;;5059576;28;20231;-85
2021/11/29 09:05:56;;;;;;;8.18;7.18;;;1.00;99.90;;;;;;5043549;28;20237;-84
2021/11/29 09:08:23;;;;;;;8.48;6.57;;;1.00;99.90;;;;;;5038647;28;20235;-84
2021/11/29 09:10:50;;;;;;;9.55;6.70;;;0.80;99.90;;;;;;5036627;28;20210;-84
2021/11/29 09:13:19;;;;;;;9.50;6.35;;;0.80;99.90;;;;;;5049688;28;20578;-83
2021/11/29 09:15:47;;;;;;;8.75;5.57;;;0.80;99.90;;;;;;5056743;28;20225;-83
2021/11/29 09:18:15;;;;;;;6.20;5.35;;;0.80;99.90;;;;;;5045229;28;20211;-85
2021/11/29 09:20:43;;;;;;;7.15;5.10;;;0.80;99.90;;;;;;5036877;28;20206;-84
2021/11/29 09:23:11;;;;;;;10.50;6.40;;;0.80;99.90;;;;;;5049557;28;20221;-83
2021/11/29 09:25:41;;;;;;;13.15;5.80;;;0.80;99.90;;;;;;5061147;28;20226;-82
2021/11/29 09:28:09;;;;;;;7.95;6.22;;;0.80;99.90;;;;;;5058224;28;20201;-84
2021/11/29 09:30:41;;;;;;;8.38;5.45;;;0.90;99.90;;;;;;5061970;28;20281;-83
2021/11/29 09:33:09;;;;;;;7.97;4.18;;;1.00;99.90;;;;;;5062678;28;20212;-82
2021/11/29 09:35:36;;;;;;;5.15;4.65;;;1.10;99.90;;;;;;5052900;28;20579;-82
2021/11/29 09:38:04;;;;;;;6.18;4.75;;;1.20;99.90;;;;;;5040977;28;20213;-83
2021/11/29 09:40:34;;;;;;;8.05;4.80;;;1.20;99.90;;;;;;5046449;28;20194;-83
2021/11/29 09:43:01;;;;;;;3.58;3.28;;;1.30;99.90;;;;;;5059855;28;20229;-83
2021/11/29 09:45:29;;;;;;;5.85;4.97;;;1.40;99.90;;;;;;5054143;28;20833;-83
2021/11/29 09:47:58;;;;;;;3.97;2.85;;;1.50;99.90;;;;;;5038300;28;20211;-82
2021/11/29 09:50:26;;;;;;;6.95;4.95;;;1.50;99.90;;;;;;5043070;28;20710;-83
2021/11/29 09:56:03;;;;;;;5.22;4.60;;;1.70;99.90;;;;;;5055004;28;20227;-85
2021/11/29 09:58:31;;;;;;;3.90;3.17;;;2.00;99.90;;;;;;5041625;28;20199;-85
2021/11/29 10:01:00;;;;;;;7.38;3.80;;;2.10;99.90;;;;;;5048835;28;20210;-84
2021/11/29 10:03:29;;;;;;;6.20;4.75;;;1.90;99.90;;;;;;5060746;28;20229;-83
2021/11/29 10:05:56;;;;;;;6.57;5.40;;;2.00;99.90;;;;;;5055413;28;20229;-83
2021/11/29 10:08:28;;;;;;;4.38;3.28;;;2.10;99.90;;;;;;5044867;28;20214;-83
2021/11/29 10:10:56;;;;;;;7.35;3.78;;;2.00;99.90;;;;;;5045945;28;20213;-83
2021/11/29 10:13:25;;;;;;;3.97;3.60;;;2.00;99.90;;;;;;5060884;28;20777;-84
2021/11/29 10:15:55;;;;;;;7.28;4.80;;;2.10;99.90;;;;;;5054017;28;20221;-84
2021/11/29 10:18:24;;;;;;;8.20;3.95;;;2.10;99.90;;;;;;5044435;28;20207;-84
2021/11/29 10:20:59;;;;;;;5.38;3.78;;;2.10;99.90;;;;;;5046780;28;20216;-84
2021/11/29 10:23:33;;;;;;;8.20;5.00;;;2.10;99.90;;;;;;5062242;28;20220;-84
2021/11/29 10:26:02;;;;;;;5.10;2.90;;;2.00;99.90;;;;;;5063028;28;20227;-85
2021/11/29 10:32:10;;;;;;;3.35;2.70;;;2.20;99.90;;;;;;5046445;28;20242;-84
2021/11/29 10:34:37;;;;;;;8.13;2.80;;;2.60;99.90;;;;;;5052444;28;20244;-84
2021/11/29 10:37:10;;;;;;;6.18;3.97;;;3.00;99.90;;;;;;5065635;28;20270;-84
2021/11/29 10:39:39;;;;;;;2.47;2.22;;;2.70;99.90;;;;;;5065746;28;20207;-84
2021/11/29 10:42:09;;;;;;;2.90;2.70;;;2.60;99.90;;;;;;5065890;28;20223;-84
2021/11/29 10:44:38;;;;;;;4.70;3.25;;;2.40;99.90;;;;;;5065799;28;20594;-84
2021/11/29 10:47:07;;;;;;;3.70;3.40;;;2.60;99.90;;;;;;5065118;28;20208;-84
2021/11/29 10:49:38;;;;;;;4.15;3.17;;;2.70;99.90;;;;;;5065322;28;20226;-84
2021/11/29 10:52:08;;;;;;;5.05;3.97;;;2.60;99.90;;;;;;5064553;28;20216;-84
2021/11/29 10:54:36;;;;;;;4.50;2.45;;;2.50;99.90;;;;;;5065079;28;20207;-84
2021/11/29 10:57:04;;;;;;;4.53;2.65;;;2.40;99.90;;;;;;5065352;28;20215;-84
2021/11/29 10:59:35;;;;;;;7.30;4.75;;;2.30;99.90;;;;;;5065347;28;20209;-84
2021/11/29 11:02:08;;;;;;;5.22;3.97;;;2.30;99.90;;;;;;5065419;28;20211;-84
2021/11/29 11:04:39;;;;;;;6.85;3.03;;;2.50;99.90;;;;;;5065928;28;20212;-84
2021/11/29 11:07:11;;;;;;;3.33;2.63;;;2.90;99.90;;;;;;5066071;28;20209;-84
2021/11/29 11:09:40;;;;;;;4.88;2.78;;;3.20;99.90;;;;;;5066218;28;20233;-84
2021/11/29 11:12:09;;;;;;;4.43;3.15;;;3.20;99.90;;;;;;5066290;28;20279;-84
2021/11/29 11:14:38;;;;;;;3.17;2.60;;;3.30;99.90;;;;;;5066832;28;20207;-83
2021/11/29 11:17:06;;;;;;;6.20;3.40;;;3.80;99.90;;;;;;5067102;28;20213;-83
2021/11/29 11:19:36;;;;;;;4.30;2.47;;;3.80;99.90;;;;;;5067939;28;20210;-83
2021/11/29 11:22:17;;;;;;;3.80;1.70;;;3.40;99.90;;;;;;5067101;28;20310;-83
2021/11/29 11:24:45;;;;;;;2.42;2.25;;;2.90;99.90;;;;;;5067605;28;20236;-83
2021/11/29 11:27:13;;;;;;;3.13;2.80;;;2.50;99.90;;;;;;5069044;28;20221;-84
2021/11/29 11:29:48;;;;;;;3.72;3.42;;;2.40;99.90;;;;;;5068957;28;20230;-83
2021/11/29 11:32:28;;;;;;;3.38;3.15;;;2.30;99.90;;;;;;5068359;28;20262;-83
2021/11/29 11:34:57;;;;;;;3.00;2.67;;;2.30;99.90;;;;;;5069667;28;20230;-83
2021/11/29 11:37:27;;;;;;;4.38;3.90;;;2.30;99.90;;;;;;5068679;28;20643;-83
2021/11/29 11:39:55;;;;;;;4.38;3.38;;;2.30;99.90;;;;;;5069283;28;20293;-83
2021/11/29 11:42:23;;;;;;;3.72;3.42;;;2.30;99.90;;;;;;5069618;28;20205;-83
2021/11/29 11:44:51;;;;;;;3.83;3.53;;;2.30;99.90;;;;;;5075925;28;20268;-82
2021/11/29 11:47:19;;;;;;;4.90;3.58;;;2.30;99.90;;;;;;5076807;28;20220;-82
2021/11/29 11:49:48;;;;;;;2.05;1.88;;;2.20;99.90;;;;;;5077122;28;20190;-82
2021/11/29 11:52:17;;;;;;;3.85;2.67;;;2.10;99.90;;;;;;5074655;28;20217;-82
2021/11/29 11:54:45;;;;;;;4.60;3.28;;;2.10;99.90;;;;;;5075802;28;20293;-86
2021/11/29 11:57:14;;;;;;;4.95;4.50;;;2.20;99.90;;;;;;5068648;28;20277;-83
2021/11/29 11:59:59;;;;;;;8.55;4.22;;;2.60;99.90;;;;;;5075743;28;20237;-83
2021/11/29 12:02:46;;;;;;;5.18;3.70;;;3.00;99.90;;;;;;5075236;28;20208;-83
2021/11/29 12:05:15;;;;;;;5.25;3.38;;;3.10;99.90;;;;;;5075480;28;20442;-83
2021/11/29 12:07:42;;;;;;;6.18;4.35;;;3.10;99.90;;;;;;5077224;28;20197;-83
2021/11/29 12:10:36;;;;;;;4.85;3.47;;;3.10;99.90;;;;;;5075974;28;20193;-82
2021/11/29 12:13:05;;;;;;;3.65;2.85;;;2.80;99.90;;;;;;5075637;28;20236;-83
2021/11/29 12:15:50;;;;;;;3.38;2.63;;;2.90;99.90;;;;;;5076549;28;20239;-83
2021/11/29 12:19:07;;;;;;;3.97;3.42;;;2.80;99.90;;;;;;5075408;28;20222;-82
2021/11/29 12:21:48;;;;;;;4.10;2.97;;;2.70;99.90;;;;;;5075572;28;20268;-82
2021/11/29 12:24:22;;;;;;;4.82;2.13;;;2.90;99.90;;;;;;5075059;28;20242;-82
2021/11/29 12:27:02;;;;;;;3.20;2.60;;;2.80;99.90;;;;;;5076167;28;20236;-82
2021/11/29 12:29:59;;;;;;;4.18;3.33;;;2.60;99.90;;;;;;5075570;28;20257;-82
2021/11/29 12:32:54;;;;;;;2.47;2.25;;;2.30;99.90;;;;;;5075695;28;20232;-82
2021/11/29 12:35:39;;;;;;;2.50;2.30;;;2.20;99.90;;;;;;5075907;28;20243;-82
2021/11/29 12:38:10;;;;;;;3.03;2.83;;;2.20;99.90;;;;;;5075139;28;20755;-83
2021/11/29 12:40:46;;;;;;;6.32;2.53;;;2.10;99.90;;;;;;5073200;28;20214;-82
2021/11/29 12:43:49;;;;;;;4.75;3.55;;;2.20;99.90;;;;;;5074084;28;20630;-82
2021/11/29 12:46:28;;;;;;;3.70;3.40;;;2.10;99.90;;;;;;5074829;28;20234;-82
2021/11/29 12:48:57;;;;;;;8.68;3.53;;;2.30;99.90;;;;;;5075476;28;20238;-82
2021/11/29 12:51:43;;;;;;;3.38;2.95;;;2.40;99.90;;;;;;5074126;28;20215;-83
2021/11/29 12:54:35;;;;;;;8.43;3.78;;;2.40;99.90;;;;;;5073417;28;20205;-83
2021/11/29 12:57:28;;;;;;;2.10;1.95;;;2.40;99.90;;;;;;5073051;28;20209;-83
2021/11/29 12:59:58;;;;;;;6.88;6.15;;;2.40;99.90;;;;;;5074646;28;20218;-82
2021/11/29 13:02:39;;;;;;;5.38;2.92;;;2.40;99.90;;;;;;5074377;28;20268;-83
2021/11/29 13:05:42;;;;;;;4.15;3.03;;;2.20;99.90;;;;;;5077941;28;20264;-83
2021/11/29 13:08:13;;;;;;;4.22;3.83;;;2.30;99.90;;;;;;5068668;28;20266;-83
2021/11/29 13:11:00;;;;;;;2.22;2.13;;;2.30;99.90;;;;;;5072565;28;20236;-83
2021/11/29 13:13:33;;;;;;;4.35;3.83;;;2.20;99.90;;;;;;5073897;28;20210;-83
2021/11/29 13:16:04;;;;;;;3.15;2.85;;;2.10;99.90;;;;;;5074691;28;20240;-83
2021/11/29 13:19:04;;;;;;;2.90;2.67;;;2.10;99.90;;;;;;5074821;28;20216;-83
2021/11/29 13:21:34;;;;;;;4.25;3.85;;;2.00;99.90;;;;;;5073203;28;20251;-83
2021/11/29 13:24:07;;;;;;;3.22;2.85;;;1.90;99.90;;;;;;5073625;28;20226;-83
2021/11/29 13:26:37;;;;;;;4.05;3.70;;;1.90;99.90;;;;;;5073258;28;20233;-83
2021/11/29 13:29:08;;;;;;;5.35;4.40;;;1.90;99.90;;;;;;5072899;28;20238;-83
2021/11/29 13:31:38;;;;;;;5.22;4.47;;;2.00;99.90;;;;;;5073389;28;20213;-83
2021/11/29 13:34:06;;;;;;;4.32;3.92;;;2.00;99.90;;;;;;5073836;28;20204;-83
2021/11/29 13:36:36;;;;;;;4.85;4.25;;;2.00;99.90;;;;;;5072101;28;20231;-83
2021/11/29 13:39:11;;;;;;;5.50;5.00;;;2.00;99.90;;;;;;5070391;28;20211;-83
2021/11/29 13:41:38;;;;;;;3.80;3.50;;;2.00;99.90;;;;;;5076464;28;20209;-83
2021/11/29 13:44:23;;;;;;;7.60;6.05;;;1.90;99.90;;;;;;5076309;28;20224;-82
2021/11/29 13:47:00;;;;;;;3.75;3.45;;;1.90;99.90;;;;;;5077374;28;20213;-82
2021/11/29 13:49:32;;;;;;;6.28;5.22;;;1.70;99.90;;;;;;5077995;28;20209;-82
2021/11/29 13:51:59;;;;;;;4.90;4.18;;;1.70;99.90;;;;;;5076075;28;20206;-83
2021/11/29 13:54:26;;;;;;;6.03;3.95;;;1.70;99.90;;;;;;5076410;28;20202;-83
2021/11/29 13:56:53;;;;;;;3.45;3.20;;;1.70;99.90;;;;;;5077599;28;20257;-82
2021/11/29 13:59:20;;;;;;;6.18;4.93;;;1.70;99.90;;;;;;5076480;28;20194;-83
2021/11/29 14:01:47;;;;;;;6.82;5.25;;;1.80;99.90;;;;;;5073860;28;20203;-83
2021/11/29 14:04:19;;;;;;;8.50;6.30;;;1.80;99.90;;;;;;5074073;28;20556;-83
2021/11/29 14:06:46;;;;;;;6.25;5.40;;;1.80;99.90;;;;;;5073882;28;20231;-83